createdAt,value
2022-08-05T00:01:36.549Z,23.92
2022-08-05T00:04:19.402Z,23.90
2022-08-05T00:06:51.823Z,23.87
2022-08-05T00:09:20.410Z,23.85
2022-08-05T00:11:55.869Z,23.82
2022-08-05T00:14:29.238Z,23.81
2022-08-05T00:17:01.640Z,23.79
2022-08-05T00:19:33.432Z,23.78
2022-08-05T00:22:11.894Z,23.76
2022-08-05T00:24:42.535Z,23.75
2022-08-05T00:27:16.825Z,23.73
2022-08-05T00:29:45.102Z,23.72
2022-08-05T00:32:15.139Z,23.70
2022-08-05T00:35:04.538Z,23.69
2022-08-05T00:37:50.283Z,23.68
2022-08-05T00:40:27.550Z,23.66
2022-08-05T00:42:59.112Z,23.64
2022-08-05T00:45:38.951Z,23.62
2022-08-05T00:48:18.501Z,23.60
2022-08-05T00:50:56.083Z,23.59
2022-08-05T00:54:00.440Z,23.57
2022-08-05T00:56:12.075Z,23.56
2022-08-05T00:58:40.462Z,23.56
2022-08-05T01:01:13.433Z,23.54
2022-08-05T01:03:42.400Z,23.53
2022-08-05T01:06:15.279Z,23.51
2022-08-05T01:08:44.796Z,23.50
2022-08-05T01:11:33.488Z,23.48
2022-08-05T01:14:31.890Z,23.47
2022-08-05T01:17:11.022Z,23.44
2022-08-05T01:20:09.795Z,23.43
2022-08-05T01:22:51.507Z,23.40
2022-08-05T01:25:39.869Z,23.39
2022-08-05T01:28:28.126Z,23.37
2022-08-05T01:31:12.552Z,23.35
2022-08-05T01:34:02.485Z,23.33
2022-08-05T01:36:36.238Z,23.30
2022-08-05T01:39:12.249Z,23.28
2022-08-05T01:41:44.523Z,23.26
2022-08-05T01:44:14.203Z,23.23
2022-08-05T01:46:46.440Z,23.22
2022-08-05T01:49:24.399Z,23.19
2022-08-05T01:52:02.274Z,23.18
2022-08-05T01:54:53.989Z,23.15
2022-08-05T01:58:12.555Z,23.13
2022-08-05T02:00:18.856Z,23.11
2022-08-05T02:02:57.749Z,23.08
2022-08-05T02:05:30.250Z,23.06
2022-08-05T02:08:02.503Z,23.03
2022-08-05T02:10:36.660Z,23.01
2022-08-05T02:13:16.259Z,22.99
2022-08-05T02:15:54.125Z,22.95
2022-08-05T02:18:34.925Z,22.94
2022-08-05T02:21:16.216Z,22.90
2022-08-05T02:23:48.480Z,22.88
2022-08-05T02:26:53.832Z,22.85
2022-08-05T02:29:58.247Z,22.82
2022-08-05T02:32:19.927Z,22.78
2022-08-05T02:34:54.834Z,22.74
2022-08-05T02:37:24.921Z,22.71
2022-08-05T02:39:54.623Z,22.67
2022-08-05T02:42:25.808Z,22.64
2022-08-05T02:44:57.181Z,22.60
2022-08-05T02:48:06.426Z,22.55
2022-08-05T02:50:18.130Z,22.50
2022-08-05T02:52:46.946Z,22.45
2022-08-05T02:55:17.592Z,22.40
2022-08-05T02:58:09.337Z,22.35
2022-08-05T03:00:41.175Z,22.30
2022-08-05T03:03:20.112Z,22.26
2022-08-05T03:06:55.098Z,22.21
2022-08-05T03:08:42.660Z,22.15
2022-08-05T03:11:54.521Z,22.11
2022-08-05T03:14:07.900Z,22.05
2022-08-05T03:16:35.988Z,22.01
2022-08-05T03:19:16.932Z,21.96
2022-08-05T03:21:48.751Z,21.90
2022-08-05T03:24:26.881Z,21.86
2022-08-05T03:27:00.914Z,21.81
2022-08-05T03:29:44.785Z,21.77
2022-08-05T03:32:19.641Z,21.73
2022-08-05T03:34:50.354Z,21.68
2022-08-05T03:37:21.339Z,21.63
2022-08-05T03:40:01.143Z,21.60
2022-08-05T03:42:32.298Z,21.55
2022-08-05T03:45:22.177Z,21.51
2022-08-05T03:47:51.835Z,21.48
2022-08-05T03:50:29.017Z,21.44
2022-08-05T03:55:52.348Z,21.42
2022-08-05T03:56:35.057Z,21.41
2022-08-05T03:59:10.813Z,21.46
2022-08-05T04:01:42.618Z,21.48
2022-08-05T04:04:21.094Z,21.50
2022-08-05T04:06:51.765Z,21.51
2022-08-05T04:09:26.573Z,21.54
2022-08-05T04:11:56.948Z,21.59
2022-08-05T04:14:30.601Z,21.62
2022-08-05T04:17:00.765Z,21.65
2022-08-05T04:19:30.597Z,21.69
2022-08-05T04:22:08.788Z,21.73
2022-08-05T04:24:44.134Z,21.78
2022-08-05T04:27:13.784Z,21.84
2022-08-05T04:29:43.284Z,21.89
2022-08-05T04:32:11.260Z,21.95
2022-08-05T04:34:43.035Z,22.03
2022-08-05T04:37:11.486Z,22.08
2022-08-05T04:39:40.669Z,22.13
2022-08-05T04:42:09.351Z,22.21
2022-08-05T04:44:37.245Z,22.31
2022-08-05T04:47:08.931Z,22.40
2022-08-05T04:50:03.098Z,22.48
2022-08-05T04:52:28.908Z,22.56
2022-08-05T04:54:56.998Z,22.60
2022-08-05T04:57:28.497Z,22.65
2022-08-05T04:59:58.671Z,22.70
2022-08-05T05:02:41.081Z,22.74
2022-08-05T05:05:16.500Z,22.78
2022-08-05T05:07:56.406Z,22.83
2022-08-05T05:10:33.371Z,22.89
2022-08-05T05:13:04.147Z,22.95
2022-08-05T05:16:00.479Z,23.03
2022-08-05T05:18:28.329Z,23.28
2022-08-05T05:20:56.683Z,23.65
2022-08-05T05:23:26.373Z,23.82
2022-08-05T05:25:54.051Z,23.84
2022-08-05T05:28:22.073Z,23.85
2022-08-05T05:30:52.668Z,23.87
2022-08-05T05:33:23.371Z,23.90
2022-08-05T05:35:51.907Z,23.95
2022-08-05T05:38:22.797Z,24.03
2022-08-05T05:40:57.071Z,24.11
2022-08-05T05:43:57.084Z,24.16
2022-08-05T05:46:17.221Z,24.23
2022-08-05T05:48:48.498Z,24.32
2022-08-05T05:51:24.207Z,24.36
2022-08-05T05:53:58.890Z,24.39
2022-08-05T05:56:32.585Z,24.43
2022-08-05T05:59:05.484Z,24.50
2022-08-05T06:01:40.036Z,24.56
2022-08-05T06:04:12.188Z,24.62
2022-08-05T06:06:42.910Z,24.69
2022-08-05T06:09:17.513Z,24.75
2022-08-05T06:12:01.146Z,24.81
2022-08-05T06:14:31.635Z,24.88
2022-08-05T06:17:02.024Z,24.94
2022-08-05T06:19:57.029Z,25.02
2022-08-05T06:22:33.310Z,25.09
2022-08-05T06:25:59.695Z,25.18
2022-08-05T06:28:10.651Z,25.27
2022-08-05T06:30:39.312Z,25.36
2022-08-05T06:33:09.884Z,25.45
2022-08-05T06:36:07.227Z,25.54
2022-08-05T06:38:36.444Z,25.64
2022-08-05T06:41:07.822Z,25.70
2022-08-05T06:43:58.967Z,25.77
2022-08-05T06:46:30.437Z,25.85
2022-08-05T06:49:00.983Z,25.92
2022-08-05T06:51:30.885Z,26.01
2022-08-05T06:54:00.517Z,26.08
2022-08-05T06:56:34.237Z,26.16
2022-08-05T06:59:09.554Z,26.25
2022-08-05T07:01:40.699Z,26.36
2022-08-05T07:04:10.756Z,26.58
2022-08-05T07:06:42.243Z,27.18
2022-08-05T07:09:10.054Z,27.86
2022-08-05T07:11:39.824Z,28.60
2022-08-05T07:14:30.079Z,29.17
2022-08-05T07:17:59.792Z,29.37
2022-08-05T07:20:31.410Z,29.51
2022-08-05T07:22:41.938Z,29.67
2022-08-05T07:25:54.489Z,30.07
2022-08-05T07:28:05.797Z,30.59
2022-08-05T07:30:39.550Z,31.05
2022-08-05T07:33:16.388Z,31.34
2022-08-05T07:36:04.783Z,31.43
2022-08-05T07:38:43.280Z,31.43
2022-08-05T07:42:14.223Z,31.52
2022-08-05T07:44:14.061Z,31.77
2022-08-05T07:46:49.413Z,32.17
2022-08-05T07:49:19.567Z,32.70
2022-08-05T07:51:53.120Z,33.35
2022-08-05T07:54:30.773Z,33.96
2022-08-05T07:57:17.748Z,34.18
2022-08-05T07:59:51.992Z,33.89
2022-08-05T08:02:26.757Z,33.54
2022-08-05T08:04:59.582Z,33.19
2022-08-05T08:07:28.944Z,32.89
2022-08-05T08:10:07.625Z,32.62
2022-08-05T08:12:49.236Z,32.40
2022-08-05T08:15:17.949Z,32.18
2022-08-05T08:18:13.682Z,31.97
2022-08-05T08:21:02.343Z,31.78
2022-08-05T08:24:01.969Z,31.61
2022-08-05T08:26:26.879Z,31.49
2022-08-05T08:29:21.934Z,31.37
2022-08-05T08:31:49.842Z,31.27
2022-08-05T08:34:30.236Z,31.20
2022-08-05T08:37:03.258Z,31.13
2022-08-05T08:39:37.204Z,31.07
2022-08-05T08:42:32.545Z,31.03
2022-08-05T08:45:23.974Z,30.99
2022-08-05T08:48:10.743Z,30.97
2022-08-05T08:51:03.251Z,30.95
2022-08-05T08:53:31.132Z,30.93
2022-08-05T08:56:05.601Z,30.93
2022-08-05T08:58:37.644Z,30.93
2022-08-05T09:01:16.241Z,30.94
2022-08-05T09:03:48.347Z,30.96
2022-08-05T09:06:28.216Z,30.99
2022-08-05T09:09:00.659Z,31.01
2022-08-05T09:11:51.473Z,31.04
2022-08-05T09:14:57.031Z,31.08
2022-08-05T09:17:41.170Z,31.12
2022-08-05T09:20:02.760Z,31.16
2022-08-05T09:23:09.016Z,31.19
2022-08-05T09:26:01.308Z,31.27
2022-08-05T09:28:34.530Z,31.34
2022-08-05T09:31:44.174Z,31.41
2022-08-05T09:33:59.163Z,31.45
2022-08-05T09:36:54.916Z,31.46
2022-08-05T09:39:41.148Z,31.48
2022-08-05T09:42:20.247Z,31.49
2022-08-05T09:44:56.401Z,31.53
2022-08-05T09:47:36.439Z,31.59
2022-08-05T09:50:38.081Z,31.64
2022-08-05T09:53:07.195Z,31.69
2022-08-05T09:55:58.237Z,31.74
2022-08-05T09:58:26.484Z,31.79
2022-08-05T10:01:13.374Z,31.83
2022-08-05T10:04:02.190Z,31.89
2022-08-05T10:06:32.237Z,31.93
2022-08-05T10:09:27.523Z,31.94
2022-08-05T10:12:30.238Z,31.96
2022-08-05T10:15:21.659Z,31.99
2022-08-05T10:18:08.802Z,32.00
2022-08-05T10:20:50.534Z,32.04
2022-08-05T10:23:55.277Z,32.07
2022-08-05T10:26:14.533Z,32.11
2022-08-05T10:28:45.087Z,32.13
2022-08-05T10:32:54.070Z,32.15
2022-08-05T10:34:07.109Z,32.17
2022-08-05T10:36:41.507Z,32.20
2022-08-05T10:39:24.252Z,32.23
2022-08-05T10:42:01.235Z,32.29
2022-08-05T10:44:31.545Z,32.36
2022-08-05T10:46:59.298Z,32.44
2022-08-05T10:49:33.316Z,32.52
2022-08-05T10:52:05.551Z,32.57
2022-08-05T10:55:03.040Z,32.61
2022-08-05T10:57:34.014Z,32.65
2022-08-05T11:00:18.509Z,32.68
2022-08-05T11:03:23.181Z,32.72
2022-08-05T11:06:04.275Z,32.78
2022-08-05T11:08:37.458Z,32.81
2022-08-05T11:11:44.657Z,32.84
2022-08-05T11:14:57.571Z,32.88
2022-08-05T11:18:00.417Z,32.93
2022-08-05T11:20:41.689Z,33.00
2022-08-05T11:24:04.819Z,33.05
2022-08-05T11:26:32.335Z,33.10
2022-08-05T11:29:13.746Z,33.13
2022-08-05T11:31:58.023Z,33.16
2022-08-05T11:34:47.413Z,33.22
2022-08-05T11:38:26.842Z,33.30
2022-08-05T11:41:35.123Z,33.35
2022-08-05T11:44:07.307Z,33.41
2022-08-05T11:46:58.697Z,33.47
2022-08-05T11:49:36.248Z,33.50
2022-08-05T11:52:08.424Z,33.52
2022-08-05T11:54:41.309Z,33.52
2022-08-05T11:57:24.244Z,33.52
2022-08-05T11:59:54.616Z,33.55
2022-08-05T12:02:33.451Z,33.58
2022-08-05T12:05:08.210Z,33.63
2022-08-05T12:08:04.394Z,33.64
2022-08-05T12:10:43.805Z,33.64
2022-08-05T12:13:17.218Z,33.64
2022-08-05T12:15:56.300Z,33.63
2022-08-05T12:18:38.890Z,33.64
2022-08-05T12:21:12.303Z,33.66
2022-08-05T12:23:43.232Z,33.67
2022-08-05T12:26:11.239Z,33.66
2022-08-05T12:28:39.203Z,33.62
2022-08-05T12:31:07.262Z,33.61
2022-08-05T12:33:36.376Z,33.60
2022-08-05T12:36:08.639Z,33.58
2022-08-05T12:38:39.891Z,33.54
2022-08-05T12:41:13.905Z,33.49
2022-08-05T12:43:57.350Z,33.45
2022-08-05T12:46:29.285Z,33.45
2022-08-05T12:49:00.512Z,33.44
2022-08-05T12:52:10.316Z,33.46
2022-08-05T12:54:23.229Z,33.45
2022-08-05T12:56:57.437Z,33.44
2022-08-05T13:01:58.500Z,33.46
2022-08-05T13:02:40.146Z,33.48
2022-08-05T13:05:12.664Z,33.51
2022-08-05T13:07:59.925Z,33.53
2022-08-05T13:10:33.238Z,33.54
2022-08-05T13:13:01.017Z,33.54
2022-08-05T13:15:35.906Z,33.53
2022-08-05T13:18:19.440Z,33.51
2022-08-05T13:20:49.807Z,33.50
2022-08-05T13:23:22.642Z,33.49
2022-08-05T13:25:58.973Z,33.47
2022-08-05T13:28:28.566Z,33.47
2022-08-05T13:30:57.226Z,33.48
2022-08-05T13:34:22.239Z,33.51
2022-08-05T13:36:14.539Z,33.52
2022-08-05T13:38:43.243Z,33.54
2022-08-05T13:41:11.755Z,33.54
2022-08-05T13:43:45.924Z,33.54
2022-08-05T13:46:43.893Z,33.55
2022-08-05T13:49:12.874Z,33.59
2022-08-05T13:51:46.254Z,33.63
2022-08-05T13:54:16.659Z,33.65
2022-08-05T13:56:51.428Z,33.68
2022-08-05T13:59:24.603Z,33.69
2022-08-05T14:01:58.361Z,33.68
2022-08-05T14:04:49.738Z,33.64
2022-08-05T14:07:56.223Z,33.66
2022-08-05T14:10:18.678Z,33.68
2022-08-05T14:12:48.862Z,33.72
2022-08-05T14:16:05.218Z,33.76
2022-08-05T14:18:06.002Z,33.80
2022-08-05T14:20:43.334Z,33.84
2022-08-05T14:23:24.763Z,33.84
2022-08-05T14:25:57.937Z,33.87
2022-08-05T14:28:29.726Z,33.88
2022-08-05T14:30:59.656Z,33.88
2022-08-05T14:33:57.043Z,33.90
2022-08-05T14:36:21.444Z,33.92
2022-08-05T14:38:51.227Z,33.94
2022-08-05T14:41:19.400Z,33.93
2022-08-05T14:44:02.361Z,33.91
2022-08-05T14:46:35.527Z,33.90
2022-08-05T14:49:07.277Z,33.90
2022-08-05T14:51:42.403Z,33.90
2022-08-05T14:54:28.122Z,33.87
2022-08-05T14:56:59.188Z,33.84
2022-08-05T14:59:29.717Z,33.84
2022-08-05T15:02:15.050Z,33.84
2022-08-05T15:04:47.756Z,33.84
2022-08-05T15:08:05.698Z,33.87
2022-08-05T15:10:09.525Z,33.89
2022-08-05T15:12:59.717Z,33.93
2022-08-05T15:15:55.552Z,33.95
2022-08-05T15:18:17.233Z,33.95
2022-08-05T15:20:45.997Z,33.96
2022-08-05T15:23:14.375Z,33.97
2022-08-05T15:25:53.861Z,33.98
2022-08-05T15:28:27.272Z,33.99
2022-08-05T15:30:56.638Z,33.98
2022-08-05T15:34:18.892Z,33.95
2022-08-05T15:36:17.267Z,33.91
2022-08-05T15:40:41.395Z,33.86
2022-08-05T15:41:57.591Z,33.80
2022-08-05T15:44:30.292Z,33.76
2022-08-05T15:47:01.113Z,33.73
2022-08-05T15:49:48.229Z,33.69
2022-08-05T15:52:52.070Z,33.65
2022-08-05T15:55:16.268Z,33.61
2022-08-05T15:57:45.131Z,33.57
2022-08-05T16:00:16.650Z,33.54
2022-08-05T16:02:44.873Z,33.51
2022-08-05T16:05:13.281Z,33.46
2022-08-05T16:07:46.276Z,33.41
2022-08-05T16:10:14.635Z,33.36
2022-08-05T16:12:42.663Z,33.32
2022-08-05T16:15:10.653Z,33.29
2022-08-05T16:17:57.418Z,33.24
2022-08-05T16:20:26.200Z,33.19
2022-08-05T16:22:56.068Z,33.12
2022-08-05T16:25:32.352Z,33.04
2022-08-05T16:28:06.568Z,32.97
2022-08-05T16:30:37.965Z,32.90
2022-08-05T16:33:05.687Z,32.85
2022-08-05T16:35:41.991Z,32.79
2022-08-05T16:38:23.731Z,32.72
2022-08-05T16:40:59.630Z,32.64
2022-08-05T16:43:32.099Z,32.55
2022-08-05T16:46:04.279Z,32.45
2022-08-05T16:48:38.796Z,32.35
2022-08-05T16:51:09.009Z,32.22
2022-08-05T16:54:03.948Z,32.08
2022-08-05T16:56:30.349Z,31.91
2022-08-05T16:58:58.877Z,31.75
2022-08-05T17:01:52.564Z,31.61
2022-08-05T17:04:17.034Z,31.44
2022-08-05T17:06:53.500Z,31.30
2022-08-05T17:09:23.154Z,31.17
2022-08-05T17:11:56.119Z,31.05
2022-08-05T17:14:36.820Z,30.92
2022-08-05T17:17:14.162Z,30.79
2022-08-05T17:19:46.058Z,30.65
2022-08-05T17:22:24.754Z,30.50
2022-08-05T17:24:58.683Z,30.35
2022-08-05T17:27:33.541Z,30.21
2022-08-05T17:30:12.179Z,30.07
2022-08-05T17:32:47.196Z,29.93
2022-08-05T17:35:15.876Z,29.81
2022-08-05T17:37:49.259Z,29.67
2022-08-05T17:40:22.699Z,29.53
2022-08-05T17:42:52.014Z,29.39
2022-08-05T17:45:25.033Z,29.26
2022-08-05T17:47:58.189Z,29.13
2022-08-05T17:50:30.539Z,29.01
2022-08-05T17:53:01.425Z,28.90
2022-08-05T17:55:37.638Z,28.79
2022-08-05T17:58:09.683Z,28.68
2022-08-05T18:00:44.687Z,28.57
2022-08-05T18:06:12.075Z,28.37
2022-08-05T18:08:45.734Z,28.28
2022-08-05T18:11:24.293Z,28.20
2022-08-05T18:14:03.679Z,28.12
2022-08-05T18:16:33.600Z,28.06
2022-08-05T18:19:03.051Z,28.00
2022-08-05T18:22:09.353Z,27.93
2022-08-05T18:24:19.103Z,27.83
2022-08-05T18:26:48.933Z,27.78
2022-08-05T18:29:16.876Z,27.71
2022-08-05T18:31:45.045Z,27.64
2022-08-05T18:34:12.976Z,27.57
2022-08-05T18:36:43.692Z,27.52
2022-08-05T18:39:22.423Z,27.47
2022-08-05T18:42:06.040Z,27.41
2022-08-05T18:44:55.516Z,27.35
2022-08-05T18:47:26.634Z,27.30
2022-08-05T18:50:15.509Z,27.26
2022-08-05T18:52:50.794Z,27.21
2022-08-05T18:55:21.737Z,27.17
2022-08-05T18:57:53.350Z,27.12
2022-08-05T19:00:27.182Z,27.08
2022-08-05T19:03:04.251Z,27.03
2022-08-05T19:06:12.600Z,26.99
2022-08-05T19:08:30.809Z,26.95
2022-08-05T19:11:02.807Z,26.91
2022-08-05T19:13:35.682Z,26.88
2022-08-05T19:16:22.202Z,26.84
2022-08-05T19:18:56.792Z,26.80
2022-08-05T19:21:27.395Z,26.77
2022-08-05T19:24:05.399Z,26.73
2022-08-05T19:26:54.638Z,26.70
2022-08-05T19:29:36.401Z,26.66
2022-08-05T19:32:11.179Z,26.62
2022-08-05T19:34:39.896Z,26.58
2022-08-05T19:37:10.095Z,26.55
2022-08-05T19:39:45.837Z,26.52
2022-08-05T19:42:36.132Z,26.48
2022-08-05T19:45:06.462Z,26.45
2022-08-05T19:47:37.170Z,26.41
2022-08-05T19:50:07.869Z,26.39
2022-08-05T19:52:40.023Z,26.35
2022-08-05T19:56:15.367Z,26.31
2022-08-05T19:58:04.067Z,26.27
2022-08-05T20:00:44.564Z,26.23
2022-08-05T20:03:12.374Z,26.20
2022-08-05T20:05:50.333Z,26.16
2022-08-05T20:08:20.034Z,26.11
2022-08-05T20:10:49.688Z,26.07
2022-08-05T20:13:30.087Z,26.04
2022-08-05T20:16:06.954Z,25.99
2022-08-05T20:18:35.995Z,25.95
2022-08-05T20:21:06.612Z,25.90
2022-08-05T20:23:39.928Z,25.85
2022-08-05T20:26:21.797Z,25.80
2022-08-05T20:28:55.783Z,25.75
2022-08-05T20:31:36.924Z,25.70
2022-08-05T20:34:12.527Z,25.65
2022-08-05T20:36:43.188Z,25.60
2022-08-05T20:39:16.798Z,25.56
2022-08-05T20:41:47.926Z,25.51
2022-08-05T20:44:30.697Z,25.47
2022-08-05T20:47:01.619Z,25.44
2022-08-05T20:49:37.913Z,25.41
2022-08-05T20:52:10.811Z,25.35
2022-08-05T20:54:43.127Z,25.88
2022-08-05T20:57:24.406Z,28.30
2022-08-05T21:00:40.764Z,29.73
2022-08-05T21:03:06.374Z,29.08
2022-08-05T21:05:47.690Z,28.43
2022-08-05T21:08:31.715Z,27.92
2022-08-05T21:11:09.106Z,27.56
2022-08-05T21:13:56.274Z,27.24
2022-08-05T21:16:29.462Z,26.96
2022-08-05T21:19:01.146Z,26.72
2022-08-05T21:21:39.554Z,26.50
2022-08-05T21:24:15.346Z,26.29
2022-08-05T21:26:50.532Z,26.09
2022-08-05T21:29:26.442Z,25.87
2022-08-05T21:32:03.094Z,26.27
2022-08-05T21:34:31.723Z,28.38
2022-08-05T21:37:00.793Z,29.29
2022-08-05T21:39:30.212Z,28.66
2022-08-05T21:42:02.602Z,28.00
2022-08-05T21:44:31.944Z,27.52
2022-08-05T21:47:00.335Z,27.12
2022-08-05T21:49:48.051Z,26.80
2022-08-05T21:52:27.252Z,26.48
2022-08-05T21:54:57.045Z,26.22
2022-08-05T21:57:32.702Z,25.99
2022-08-05T22:00:06.251Z,26.32
2022-08-05T22:02:34.712Z,28.44
2022-08-05T22:05:04.611Z,29.57
2022-08-05T22:07:39.773Z,28.99
2022-08-05T22:10:27.203Z,28.21
2022-08-05T22:12:59.165Z,27.66
2022-08-05T22:16:01.623Z,27.22
2022-08-05T22:18:25.850Z,26.85
2022-08-05T22:20:54.466Z,26.55
2022-08-05T22:24:01.900Z,26.29
2022-08-05T22:26:50.760Z,25.99
2022-08-05T22:29:26.161Z,26.60
2022-08-05T22:31:55.201Z,28.61
2022-08-05T22:34:32.760Z,28.61
2022-08-05T22:37:03.825Z,27.93
2022-08-05T22:39:34.707Z,27.39
2022-08-05T22:42:09.739Z,26.95
2022-08-05T22:44:48.450Z,26.59
2022-08-05T22:47:29.933Z,26.27
2022-08-05T22:50:23.134Z,26.68
2022-08-05T22:52:51.536Z,29.03
2022-08-05T22:55:23.087Z,29.92
2022-08-05T22:57:52.653Z,29.22
2022-08-05T23:00:22.580Z,28.48
2022-08-05T23:02:53.434Z,27.90
2022-08-05T23:05:22.932Z,27.44
2022-08-05T23:07:51.812Z,27.01
2022-08-05T23:10:23.601Z,26.66
2022-08-05T23:12:55.232Z,26.93
2022-08-05T23:15:28.953Z,28.94
2022-08-05T23:18:01.069Z,30.17
2022-08-05T23:20:33.013Z,29.50
2022-08-05T23:23:03.452Z,28.68
2022-08-05T23:25:53.687Z,28.05
2022-08-05T23:28:19.280Z,27.46
2022-08-05T23:30:53.184Z,27.07
2022-08-05T23:33:26.131Z,26.71
2022-08-05T23:36:13.737Z,26.37
2022-08-05T23:38:43.631Z,26.71
2022-08-05T23:41:11.799Z,28.77
2022-08-05T23:44:06.403Z,29.98
2022-08-05T23:46:29.687Z,29.17
2022-08-05T23:49:00.305Z,28.38
2022-08-05T23:51:53.467Z,27.76
2022-08-05T23:54:25.982Z,27.19
2022-08-05T23:57:03.286Z,26.80
